sensor_id;sensor_type;location;lat;lon;timestamp;pressure;altitude;pressure_sealevel;temperature;humidity
79285;BME280;68734;50.452;11.636;2023-04-09T00:01:04;96297.13;;;1.42;90.81
79285;BME280;68734;50.452;11.636;2023-04-09T00:03:35;96301.47;;;1.43;90.95
79285;BME280;68734;50.452;11.636;2023-04-09T00:06:01;96304.47;;;1.39;91.05
79285;BME280;68734;50.452;11.636;2023-04-09T00:08:27;96298.78;;;1.28;90.93
79285;BME280;68734;50.452;11.636;2023-04-09T00:10:52;96307.22;;;1.31;91.08
79285;BME280;68734;50.452;11.636;2023-04-09T00:13:18;96292.34;;;1.22;91.11
79285;BME280;68734;50.452;11.636;2023-04-09T00:15:44;96300.09;;;1.17;91.03
79285;BME280;68734;50.452;11.636;2023-04-09T00:18:10;96295.50;;;1.11;91.65
79285;BME280;68734;50.452;11.636;2023-04-09T00:20:35;96295.19;;;1.06;91.60
79285;BME280;68734;50.452;11.636;2023-04-09T00:23:01;96298.88;;;1.05;91.70
79285;BME280;68734;50.452;11.636;2023-04-09T00:25:26;96300.91;;;1.03;91.86
79285;BME280;68734;50.452;11.636;2023-04-09T00:27:55;96300.25;;;1.01;91.89
79285;BME280;68734;50.452;11.636;2023-04-09T00:30:21;96305.59;;;1.01;91.88
79285;BME280;68734;50.452;11.636;2023-04-09T00:32:47;96304.56;;;1.02;91.93
79285;BME280;68734;50.452;11.636;2023-04-09T00:35:12;96302.28;;;0.98;91.83
79285;BME280;68734;50.452;11.636;2023-04-09T00:37:38;96303.09;;;0.99;92.07
79285;BME280;68734;50.452;11.636;2023-04-09T00:40:04;96297.69;;;0.92;91.73
79285;BME280;68734;50.452;11.636;2023-04-09T00:42:33;96318.97;;;0.92;91.90
79285;BME280;68734;50.452;11.636;2023-04-09T00:45:00;96307.38;;;0.85;92.10
79285;BME280;68734;50.452;11.636;2023-04-09T00:47:26;96312.63;;;0.78;92.96
79285;BME280;68734;50.452;11.636;2023-04-09T00:49:55;96313.78;;;0.76;93.23
79285;BME280;68734;50.452;11.636;2023-04-09T00:52:21;96305.63;;;0.77;93.43
79285;BME280;68734;50.452;11.636;2023-04-09T00:54:51;96310.59;;;0.81;93.08
79285;BME280;68734;50.452;11.636;2023-04-09T00:57:17;96312.88;;;0.84;92.62
79285;BME280;68734;50.452;11.636;2023-04-09T00:59:43;96297.47;;;0.79;92.64
79285;BME280;68734;50.452;11.636;2023-04-09T01:02:09;96302.78;;;0.79;92.43
79285;BME280;68734;50.452;11.636;2023-04-09T01:04:39;96302.78;;;0.79;92.93
79285;BME280;68734;50.452;11.636;2023-04-09T01:13:17;96302.06;;;0.70;93.21
79285;BME280;68734;50.452;11.636;2023-04-09T01:15:50;96297.25;;;0.66;93.35
79285;BME280;68734;50.452;11.636;2023-04-09T01:18:24;96304.25;;;0.67;92.95
79285;BME280;68734;50.452;11.636;2023-04-09T01:21:15;96300.94;;;0.65;92.88
79285;BME280;68734;50.452;11.636;2023-04-09T01:26:55;96298.44;;;0.63;93.81
79285;BME280;68734;50.452;11.636;2023-04-09T01:29:24;96299.50;;;0.54;93.14
79285;BME280;68734;50.452;11.636;2023-04-09T01:31:51;96292.47;;;0.46;93.49
79285;BME280;68734;50.452;11.636;2023-04-09T01:34:17;96292.69;;;0.36;93.30
79285;BME280;68734;50.452;11.636;2023-04-09T01:36:50;96290.56;;;0.32;94.34
79285;BME280;68734;50.452;11.636;2023-04-09T01:39:19;96299.06;;;0.27;94.45
79285;BME280;68734;50.452;11.636;2023-04-09T01:41:46;96294.69;;;0.11;94.21
79285;BME280;68734;50.452;11.636;2023-04-09T01:44:12;96307.34;;;0.09;94.12
79285;BME280;68734;50.452;11.636;2023-04-09T01:46:38;96307.69;;;0.06;94.21
79285;BME280;68734;50.452;11.636;2023-04-09T01:49:05;96312.38;;;0.04;94.38
79285;BME280;68734;50.452;11.636;2023-04-09T01:51:32;96311.34;;;0.05;94.71
79285;BME280;68734;50.452;11.636;2023-04-09T01:53:59;96318.94;;;0.16;94.70
79285;BME280;68734;50.452;11.636;2023-04-09T01:56:24;96326.84;;;0.25;94.45
79285;BME280;68734;50.452;11.636;2023-04-09T01:58:52;96320.81;;;0.31;94.11
79285;BME280;68734;50.452;11.636;2023-04-09T02:01:31;96321.41;;;0.41;93.59
79285;BME280;68734;50.452;11.636;2023-04-09T02:04:02;96324.22;;;0.39;93.43
79285;BME280;68734;50.452;11.636;2023-04-09T02:09:05;96322.34;;;0.48;94.00
79285;BME280;68734;50.452;11.636;2023-04-09T02:11:32;96323.16;;;0.49;93.88
79285;BME280;68734;50.452;11.636;2023-04-09T02:13:58;96320.78;;;0.54;93.59
79285;BME280;68734;50.452;11.636;2023-04-09T02:16:25;96321.44;;;0.56;93.58
79285;BME280;68734;50.452;11.636;2023-04-09T02:18:54;96322.91;;;0.58;93.22
79285;BME280;68734;50.452;11.636;2023-04-09T02:21:22;96322.53;;;0.62;93.14
79285;BME280;68734;50.452;11.636;2023-04-09T02:23:48;96324.94;;;0.56;93.41
79285;BME280;68734;50.452;11.636;2023-04-09T02:26:13;96330.69;;;0.60;93.97
79285;BME280;68734;50.452;11.636;2023-04-09T02:28:38;96319.63;;;0.56;94.00
79285;BME280;68734;50.452;11.636;2023-04-09T02:31:04;96326.50;;;0.66;93.43
79285;BME280;68734;50.452;11.636;2023-04-09T02:33:29;96321.75;;;0.76;93.45
79285;BME280;68734;50.452;11.636;2023-04-09T02:35:55;96334.53;;;0.81;93.14
79285;BME280;68734;50.452;11.636;2023-04-09T02:38:20;96326.44;;;0.74;92.48
79285;BME280;68734;50.452;11.636;2023-04-09T02:40:45;96331.03;;;0.80;92.69
79285;BME280;68734;50.452;11.636;2023-04-09T02:43:11;96335.44;;;0.88;92.52
79285;BME280;68734;50.452;11.636;2023-04-09T02:45:36;96337.75;;;0.91;92.39
79285;BME280;68734;50.452;11.636;2023-04-09T02:48:02;96321.69;;;0.84;92.09
79285;BME280;68734;50.452;11.636;2023-04-09T02:50:27;96326.66;;;0.87;92.45
79285;BME280;68734;50.452;11.636;2023-04-09T02:52:53;96334.72;;;0.94;92.14
79285;BME280;68734;50.452;11.636;2023-04-09T02:55:19;96341.97;;;1.00;92.31
79285;BME280;68734;50.452;11.636;2023-04-09T02:57:45;96339.53;;;0.98;92.14
79285;BME280;68734;50.452;11.636;2023-04-09T03:00:10;96336.56;;;0.93;92.58
79285;BME280;68734;50.452;11.636;2023-04-09T03:02:36;96334.38;;;0.97;92.36
79285;BME280;68734;50.452;11.636;2023-04-09T03:05:02;96327.59;;;0.94;92.91
79285;BME280;68734;50.452;11.636;2023-04-09T03:07:27;96326.41;;;0.97;92.74
79285;BME280;68734;50.452;11.636;2023-04-09T03:09:53;96331.63;;;0.90;92.75
79285;BME280;68734;50.452;11.636;2023-04-09T03:12:18;96326.66;;;0.87;93.01
79285;BME280;68734;50.452;11.636;2023-04-09T03:14:43;96338.81;;;0.82;93.45
79285;BME280;68734;50.452;11.636;2023-04-09T03:17:09;96326.88;;;0.63;94.26
79285;BME280;68734;50.452;11.636;2023-04-09T03:19:34;96336.00;;;0.60;94.62
79285;BME280;68734;50.452;11.636;2023-04-09T03:22:00;96324.16;;;0.48;94.78
79285;BME280;68734;50.452;11.636;2023-04-09T03:24:25;96333.31;;;0.45;94.97
79285;BME280;68734;50.452;11.636;2023-04-09T03:26:53;96337.00;;;0.44;94.79
79285;BME280;68734;50.452;11.636;2023-04-09T03:29:18;96339.66;;;0.44;95.20
79285;BME280;68734;50.452;11.636;2023-04-09T03:31:44;96339.66;;;0.44;94.96
79285;BME280;68734;50.452;11.636;2023-04-09T03:34:09;96331.22;;;0.41;95.16
79285;BME280;68734;50.452;11.636;2023-04-09T03:36:35;96335.66;;;0.40;95.12
79285;BME280;68734;50.452;11.636;2023-04-09T03:39:00;96324.38;;;0.38;95.04
79285;BME280;68734;50.452;11.636;2023-04-09T03:41:26;96318.44;;;0.36;94.92
79285;BME280;68734;50.452;11.636;2023-04-09T03:43:52;96331.38;;;0.39;94.89
79285;BME280;68734;50.452;11.636;2023-04-09T03:46:17;96316.31;;;0.31;94.97
79285;BME280;68734;50.452;11.636;2023-04-09T03:48:43;96336.75;;;0.31;94.93
79285;BME280;68734;50.452;11.636;2023-04-09T03:51:15;96327.75;;;0.32;94.82
79285;BME280;68734;50.452;11.636;2023-04-09T03:53:41;96329.06;;;0.36;94.72
79285;BME280;68734;50.452;11.636;2023-04-09T03:56:07;96335.81;;;0.47;94.46
79285;BME280;68734;50.452;11.636;2023-04-09T03:58:33;96328.47;;;0.49;94.24
79285;BME280;68734;50.452;11.636;2023-04-09T04:00:59;96330.50;;;0.47;93.91
79285;BME280;68734;50.452;11.636;2023-04-09T04:03:27;96326.13;;;0.31;93.91
79285;BME280;68734;50.452;11.636;2023-04-09T04:05:53;96336.88;;;0.14;94.65
79285;BME280;68734;50.452;11.636;2023-04-09T04:08:18;96339.22;;;0.09;95.09
79285;BME280;68734;50.452;11.636;2023-04-09T04:10:43;96329.66;;;0.00;94.97
79285;BME280;68734;50.452;11.636;2023-04-09T04:13:09;96327.50;;;-0.05;95.46
79285;BME280;68734;50.452;11.636;2023-04-09T04:15:39;96328.69;;;-0.07;95.47
79285;BME280;68734;50.452;11.636;2023-04-09T04:18:05;96333.31;;;-0.01;95.44
79285;BME280;68734;50.452;11.636;2023-04-09T04:20:35;96336.28;;;0.04;94.83
79285;BME280;68734;50.452;11.636;2023-04-09T04:23:00;96342.41;;;0.05;95.08
79285;BME280;68734;50.452;11.636;2023-04-09T04:25:28;96341.91;;;0.01;95.27
79285;BME280;68734;50.452;11.636;2023-04-09T04:27:54;96340.03;;;0.10;95.14
79285;BME280;68734;50.452;11.636;2023-04-09T04:30:20;96339.47;;;0.23;95.17
79285;BME280;68734;50.452;11.636;2023-04-09T04:32:46;96340.41;;;0.30;94.89
79285;BME280;68734;50.452;11.636;2023-04-09T04:35:11;96343.13;;;0.22;94.68
79285;BME280;68734;50.452;11.636;2023-04-09T04:37:37;96344.41;;;0.26;94.89
79285;BME280;68734;50.452;11.636;2023-04-09T04:40:02;96344.25;;;0.27;94.99
79285;BME280;68734;50.452;11.636;2023-04-09T04:42:31;96353.41;;;0.25;94.89
79285;BME280;68734;50.452;11.636;2023-04-09T04:44:57;96347.44;;;0.23;95.14
79285;BME280;68734;50.452;11.636;2023-04-09T04:47:22;96344.41;;;0.26;95.15
79285;BME280;68734;50.452;11.636;2023-04-09T04:49:48;96353.28;;;0.41;94.64
79285;BME280;68734;50.452;11.636;2023-04-09T04:52:13;96349.75;;;0.49;94.43
79285;BME280;68734;50.452;11.636;2023-04-09T04:54:38;96346.53;;;0.53;93.93
79285;BME280;68734;50.452;11.636;2023-04-09T04:57:04;96339.59;;;0.52;93.76
79285;BME280;68734;50.452;11.636;2023-04-09T04:59:30;96342.66;;;0.41;93.88
79285;BME280;68734;50.452;11.636;2023-04-09T05:01:55;96344.59;;;0.47;94.09
79285;BME280;68734;50.452;11.636;2023-04-09T05:04:21;96338.69;;;0.37;93.68
79285;BME280;68734;50.452;11.636;2023-04-09T05:06:46;96344.06;;;0.29;93.92
79285;BME280;68734;50.452;11.636;2023-04-09T05:09:11;96350.09;;;0.23;94.41
79285;BME280;68734;50.452;11.636;2023-04-09T05:11:42;96353.03;;;0.28;94.37
79285;BME280;68734;50.452;11.636;2023-04-09T05:14:07;96355.97;;;0.10;94.67
79285;BME280;68734;50.452;11.636;2023-04-09T05:16:37;96356.22;;;0.00;95.30
79285;BME280;68734;50.452;11.636;2023-04-09T05:19:02;96359.09;;;-0.10;95.30
79285;BME280;68734;50.452;11.636;2023-04-09T05:21:30;96366.47;;;0.03;95.22
79285;BME280;68734;50.452;11.636;2023-04-09T05:23:56;96350.22;;;-0.02;94.47
79285;BME280;68734;50.452;11.636;2023-04-09T05:26:24;96357.75;;;-0.06;94.72
79285;BME280;68734;50.452;11.636;2023-04-09T05:28:51;96361.53;;;0.00;94.68
79285;BME280;68734;50.452;11.636;2023-04-09T05:31:16;96348.84;;;-0.21;94.80
79285;BME280;68734;50.452;11.636;2023-04-09T05:33:42;96358.50;;;0.03;95.15
79285;BME280;68734;50.452;11.636;2023-04-09T05:36:07;96364.97;;;0.09;95.02
79285;BME280;68734;50.452;11.636;2023-04-09T05:38:33;96368.09;;;0.12;94.63
79285;BME280;68734;50.452;11.636;2023-04-09T05:41:00;96367.72;;;0.15;94.00
79285;BME280;68734;50.452;11.636;2023-04-09T05:43:26;96378.91;;;0.11;93.78
79285;BME280;68734;50.452;11.636;2023-04-09T05:45:51;96370.69;;;0.21;93.31
79285;BME280;68734;50.452;11.636;2023-04-09T05:48:17;96381.28;;;0.29;93.91
79285;BME280;68734;50.452;11.636;2023-04-09T05:50:50;96364.63;;;0.35;93.33
79285;BME280;68734;50.452;11.636;2023-04-09T05:53:19;96368.28;;;0.57;93.39
79285;BME280;68734;50.452;11.636;2023-04-09T05:55:45;96362.84;;;0.73;92.64
79285;BME280;68734;50.452;11.636;2023-04-09T05:58:11;96370.16;;;0.94;92.07
79285;BME280;68734;50.452;11.636;2023-04-09T06:00:37;96368.69;;;1.07;91.25
79285;BME280;68734;50.452;11.636;2023-04-09T06:03:03;96374.59;;;1.17;90.27
79285;BME280;68734;50.452;11.636;2023-04-09T06:05:29;96370.34;;;1.08;90.31
79285;BME280;68734;50.452;11.636;2023-04-09T06:07:54;96370.56;;;1.21;90.74
79285;BME280;68734;50.452;11.636;2023-04-09T06:10:20;96379.28;;;1.30;88.86
79285;BME280;68734;50.452;11.636;2023-04-09T06:12:45;96371.16;;;1.08;89.33
79285;BME280;68734;50.452;11.636;2023-04-09T06:15:11;96375.28;;;0.96;90.39
79285;BME280;68734;50.452;11.636;2023-04-09T06:17:36;96380.19;;;1.22;90.03
79285;BME280;68734;50.452;11.636;2023-04-09T06:20:02;96375.34;;;1.41;89.61
79285;BME280;68734;50.452;11.636;2023-04-09T06:22:28;96373.22;;;1.66;88.07
79285;BME280;68734;50.452;11.636;2023-04-09T06:24:53;96372.50;;;1.87;86.08
79285;BME280;68734;50.452;11.636;2023-04-09T06:27:21;96366.75;;;2.05;85.48
79285;BME280;68734;50.452;11.636;2023-04-09T06:29:47;96364.09;;;1.90;85.83
79285;BME280;68734;50.452;11.636;2023-04-09T06:32:12;96382.75;;;1.90;86.00
79285;BME280;68734;50.452;11.636;2023-04-09T06:34:38;96373.47;;;1.86;86.42
79285;BME280;68734;50.452;11.636;2023-04-09T06:37:03;96383.97;;;1.72;86.77
79285;BME280;68734;50.452;11.636;2023-04-09T06:39:28;96390.13;;;1.73;87.25
79285;BME280;68734;50.452;11.636;2023-04-09T06:41:54;96394.16;;;1.84;86.37
79285;BME280;68734;50.452;11.636;2023-04-09T06:44:19;96380.72;;;1.92;86.01
79285;BME280;68734;50.452;11.636;2023-04-09T06:46:46;96388.63;;;2.15;85.20
79285;BME280;68734;50.452;11.636;2023-04-09T06:49:11;96388.59;;;2.51;83.78
79285;BME280;68734;50.452;11.636;2023-04-09T06:51:37;96395.97;;;2.49;84.14
79285;BME280;68734;50.452;11.636;2023-04-09T06:54:02;96391.50;;;2.35;84.72
79285;BME280;68734;50.452;11.636;2023-04-09T06:56:27;96384.16;;;2.22;85.36
79285;BME280;68734;50.452;11.636;2023-04-09T06:58:53;96391.47;;;2.13;86.03
79285;BME280;68734;50.452;11.636;2023-04-09T07:01:19;96396.47;;;1.87;85.59
79285;BME280;68734;50.452;11.636;2023-04-09T07:03:45;96393.06;;;1.93;86.19
79285;BME280;68734;50.452;11.636;2023-04-09T07:06:10;96397.91;;;2.04;85.97
79285;BME280;68734;50.452;11.636;2023-04-09T07:08:36;96385.13;;;2.36;85.32
79285;BME280;68734;50.452;11.636;2023-04-09T07:11:01;96395.34;;;2.69;83.80
79285;BME280;68734;50.452;11.636;2023-04-09T07:13:27;96397.88;;;2.55;83.76
79285;BME280;68734;50.452;11.636;2023-04-09T07:15:53;96396.75;;;2.28;85.25
79285;BME280;68734;50.452;11.636;2023-04-09T07:18:18;96413.88;;;2.04;85.19
79285;BME280;68734;50.452;11.636;2023-04-09T07:20:44;96406.81;;;2.11;86.12
79285;BME280;68734;50.452;11.636;2023-04-09T07:23:10;96406.75;;;2.41;86.03
79285;BME280;68734;50.452;11.636;2023-04-09T07:25:36;96404.75;;;2.65;84.48
79285;BME280;68734;50.452;11.636;2023-04-09T07:28:02;96411.34;;;2.69;83.82
79285;BME280;68734;50.452;11.636;2023-04-09T07:30:27;96408.59;;;2.84;83.78
79285;BME280;68734;50.452;11.636;2023-04-09T07:32:52;96406.38;;;3.09;83.22
79285;BME280;68734;50.452;11.636;2023-04-09T07:35:18;96408.16;;;3.58;81.19
79285;BME280;68734;50.452;11.636;2023-04-09T07:37:43;96402.97;;;3.50;80.35
79285;BME280;68734;50.452;11.636;2023-04-09T07:40:09;96395.47;;;3.32;80.01
79285;BME280;68734;50.452;11.636;2023-04-09T07:42:38;96398.75;;;3.34;80.14
79285;BME280;68734;50.452;11.636;2023-04-09T07:45:05;96409.34;;;3.49;80.92
79285;BME280;68734;50.452;11.636;2023-04-09T07:47:31;96411.31;;;3.68;80.52
79285;BME280;68734;50.452;11.636;2023-04-09T07:49:57;96412.25;;;3.89;80.06
79285;BME280;68734;50.452;11.636;2023-04-09T07:52:22;96409.00;;;3.93;78.76
79285;BME280;68734;50.452;11.636;2023-04-09T07:54:48;96400.53;;;3.83;79.55
79285;BME280;68734;50.452;11.636;2023-04-09T07:57:13;96402.69;;;3.66;79.12
79285;BME280;68734;50.452;11.636;2023-04-09T07:59:39;96398.03;;;3.82;79.29
79285;BME280;68734;50.452;11.636;2023-04-09T08:02:04;96397.09;;;3.96;78.45
79285;BME280;68734;50.452;11.636;2023-04-09T08:04:32;96390.50;;;3.92;74.65
79285;BME280;68734;50.452;11.636;2023-04-09T08:06:58;96399.91;;;3.81;75.87
79285;BME280;68734;50.452;11.636;2023-04-09T08:09:23;96403.06;;;3.98;74.53
79285;BME280;68734;50.452;11.636;2023-04-09T08:11:48;96402.59;;;3.88;75.94
79285;BME280;68734;50.452;11.636;2023-04-09T08:14:15;96411.06;;;3.98;75.56
79285;BME280;68734;50.452;11.636;2023-04-09T08:16:45;96399.38;;;3.99;73.87
79285;BME280;68734;50.452;11.636;2023-04-09T08:19:12;96415.63;;;4.04;75.23
79285;BME280;68734;50.452;11.636;2023-04-09T08:21:39;96416.94;;;4.22;75.15
79285;BME280;68734;50.452;11.636;2023-04-09T08:24:09;96410.38;;;4.31;76.11
79285;BME280;68734;50.452;11.636;2023-04-09T08:26:36;96409.84;;;4.49;74.81
79285;BME280;68734;50.452;11.636;2023-04-09T08:29:01;96406.63;;;4.73;74.38
79285;BME280;68734;50.452;11.636;2023-04-09T08:31:27;96410.94;;;4.81;73.21
79285;BME280;68734;50.452;11.636;2023-04-09T08:33:52;96405.63;;;5.08;73.35
79285;BME280;68734;50.452;11.636;2023-04-09T08:36:18;96401.09;;;5.15;70.83
79285;BME280;68734;50.452;11.636;2023-04-09T08:38:44;96409.34;;;5.13;72.79
79285;BME280;68734;50.452;11.636;2023-04-09T08:41:22;96409.75;;;5.17;71.55
79285;BME280;68734;50.452;11.636;2023-04-09T08:43:49;96413.69;;;5.08;70.61
79285;BME280;68734;50.452;11.636;2023-04-09T08:46:19;96403.56;;;5.23;72.97
79285;BME280;68734;50.452;11.636;2023-04-09T08:48:47;96409.75;;;5.57;67.78
79285;BME280;68734;50.452;11.636;2023-04-09T08:51:14;96389.09;;;5.77;67.38
79285;BME280;68734;50.452;11.636;2023-04-09T08:53:57;96402.69;;;5.83;65.34
79285;BME280;68734;50.452;11.636;2023-04-09T08:56:23;96407.25;;;5.69;65.02
79285;BME280;68734;50.452;11.636;2023-04-09T08:58:49;96406.44;;;5.55;65.83
79285;BME280;68734;50.452;11.636;2023-04-09T09:01:28;96395.31;;;5.58;66.54
79285;BME280;68734;50.452;11.636;2023-04-09T09:04:01;96399.81;;;5.71;64.56
79285;BME280;68734;50.452;11.636;2023-04-09T09:06:29;96399.22;;;5.69;64.92
79285;BME280;68734;50.452;11.636;2023-04-09T09:11:39;96400.25;;;5.61;65.41
79285;BME280;68734;50.452;11.636;2023-04-09T09:16:33;96394.41;;;5.91;65.15
79285;BME280;68734;50.452;11.636;2023-04-09T09:19:00;96391.06;;;6.22;65.63
79285;BME280;68734;50.452;11.636;2023-04-09T09:21:26;96381.47;;;6.46;66.33
79285;BME280;68734;50.452;11.636;2023-04-09T09:23:55;96385.47;;;6.69;62.35
79285;BME280;68734;50.452;11.636;2023-04-09T09:26:23;96389.88;;;6.88;62.39
79285;BME280;68734;50.452;11.636;2023-04-09T09:28:50;96383.13;;;7.11;63.03
79285;BME280;68734;50.452;11.636;2023-04-09T09:31:17;96385.75;;;7.17;60.92
79285;BME280;68734;50.452;11.636;2023-04-09T09:33:43;96382.34;;;7.04;61.62
79285;BME280;68734;50.452;11.636;2023-04-09T09:36:09;96394.66;;;7.18;62.00
79285;BME280;68734;50.452;11.636;2023-04-09T09:38:55;96381.69;;;7.33;62.90
79285;BME280;68734;50.452;11.636;2023-04-09T09:41:21;96381.16;;;7.50;60.86
79285;BME280;68734;50.452;11.636;2023-04-09T09:43:47;96372.22;;;7.56;59.89
79285;BME280;68734;50.452;11.636;2023-04-09T09:46:14;96375.13;;;7.73;59.59
79285;BME280;68734;50.452;11.636;2023-04-09T09:48:40;96383.59;;;7.76;57.48
79285;BME280;68734;50.452;11.636;2023-04-09T09:51:08;96382.53;;;7.77;57.52
79285;BME280;68734;50.452;11.636;2023-04-09T09:53:39;96379.69;;;7.72;57.43
79285;BME280;68734;50.452;11.636;2023-04-09T09:56:10;96390.75;;;7.83;56.20
79285;BME280;68734;50.452;11.636;2023-04-09T09:58:40;96379.78;;;8.03;58.73
79285;BME280;68734;50.452;11.636;2023-04-09T10:01:11;96383.88;;;8.05;56.92
79285;BME280;68734;50.452;11.636;2023-04-09T10:03:38;96381.13;;;7.93;57.79
79285;BME280;68734;50.452;11.636;2023-04-09T10:06:05;96382.00;;;7.87;56.60
79285;BME280;68734;50.452;11.636;2023-04-09T10:08:32;96381.03;;;7.82;58.61
79285;BME280;68734;50.452;11.636;2023-04-09T10:11:02;96379.84;;;7.77;59.84
79285;BME280;68734;50.452;11.636;2023-04-09T10:13:33;96382.69;;;7.83;56.75
79285;BME280;68734;50.452;11.636;2023-04-09T10:15:59;96375.78;;;7.50;57.54
79285;BME280;68734;50.452;11.636;2023-04-09T10:18:28;96378.91;;;7.47;56.75
79285;BME280;68734;50.452;11.636;2023-04-09T10:21:08;96374.41;;;7.41;56.72
79285;BME280;68734;50.452;11.636;2023-04-09T10:26:03;96367.22;;;7.34;54.53
79285;BME280;68734;50.452;11.636;2023-04-09T10:28:30;96375.03;;;7.61;56.31
79285;BME280;68734;50.452;11.636;2023-04-09T10:30:58;96371.03;;;7.70;55.81
79285;BME280;68734;50.452;11.636;2023-04-09T10:33:27;96373.72;;;7.89;56.12
79285;BME280;68734;50.452;11.636;2023-04-09T10:35:54;96368.94;;;8.09;56.35
79285;BME280;68734;50.452;11.636;2023-04-09T10:38:37;96359.81;;;8.29;53.00
79285;BME280;68734;50.452;11.636;2023-04-09T10:43:36;96366.97;;;8.53;54.68
79285;BME280;68734;50.452;11.636;2023-04-09T10:46:03;96361.50;;;8.90;51.96
79285;BME280;68734;50.452;11.636;2023-04-09T10:48:32;96366.25;;;8.09;52.95
79285;BME280;68734;50.452;11.636;2023-04-09T10:50:58;96349.44;;;8.32;54.31
79285;BME280;68734;50.452;11.636;2023-04-09T10:53:26;96348.13;;;8.53;52.94
79285;BME280;68734;50.452;11.636;2023-04-09T10:55:52;96351.69;;;8.66;49.71
79285;BME280;68734;50.452;11.636;2023-04-09T10:58:18;96348.88;;;8.61;48.55
79285;BME280;68734;50.452;11.636;2023-04-09T11:00:45;96349.31;;;8.57;50.09
79285;BME280;68734;50.452;11.636;2023-04-09T11:03:27;96363.47;;;8.83;49.16
79285;BME280;68734;50.452;11.636;2023-04-09T11:06:04;96353.22;;;9.04;49.73
79285;BME280;68734;50.452;11.636;2023-04-09T11:08:33;96355.84;;;9.22;49.66
79285;BME280;68734;50.452;11.636;2023-04-09T11:10:59;96349.38;;;9.23;49.09
79285;BME280;68734;50.452;11.636;2023-04-09T11:13:26;96352.75;;;9.07;48.91
79285;BME280;68734;50.452;11.636;2023-04-09T11:15:53;96342.91;;;9.01;48.19
79285;BME280;68734;50.452;11.636;2023-04-09T11:18:21;96361.38;;;8.85;48.83
79285;BME280;68734;50.452;11.636;2023-04-09T11:20:48;96353.47;;;9.14;49.89
79285;BME280;68734;50.452;11.636;2023-04-09T11:23:14;96350.22;;;9.35;49.50
79285;BME280;68734;50.452;11.636;2023-04-09T11:25:40;96347.13;;;8.96;48.42
79285;BME280;68734;50.452;11.636;2023-04-09T11:28:06;96345.13;;;9.04;48.72
79285;BME280;68734;50.452;11.636;2023-04-09T11:30:33;96342.09;;;9.00;48.09
79285;BME280;68734;50.452;11.636;2023-04-09T11:33:01;96339.09;;;8.78;48.89
79285;BME280;68734;50.452;11.636;2023-04-09T11:35:27;96350.16;;;8.88;49.43
79285;BME280;68734;50.452;11.636;2023-04-09T11:37:55;96352.25;;;8.86;50.55
79285;BME280;68734;50.452;11.636;2023-04-09T11:40:22;96352.00;;;8.88;50.09
79285;BME280;68734;50.452;11.636;2023-04-09T11:42:50;96353.44;;;8.90;49.37
79285;BME280;68734;50.452;11.636;2023-04-09T11:45:16;96351.25;;;9.11;50.97
79285;BME280;68734;50.452;11.636;2023-04-09T11:47:43;96353.50;;;9.37;48.95
79285;BME280;68734;50.452;11.636;2023-04-09T11:50:10;96352.09;;;9.47;49.27
79285;BME280;68734;50.452;11.636;2023-04-09T11:52:36;96347.53;;;9.47;47.67
79285;BME280;68734;50.452;11.636;2023-04-09T11:55:03;96352.69;;;9.49;47.25
79285;BME280;68734;50.452;11.636;2023-04-09T11:57:43;96347.53;;;9.71;47.13
79285;BME280;68734;50.452;11.636;2023-04-09T12:00:16;96344.34;;;9.74;44.34
79285;BME280;68734;50.452;11.636;2023-04-09T12:02:47;96339.88;;;9.79;44.01
79285;BME280;68734;50.452;11.636;2023-04-09T12:05:27;96342.00;;;9.77;43.77
79285;BME280;68734;50.452;11.636;2023-04-09T12:08:04;96342.94;;;9.71;44.08
79285;BME280;68734;50.452;11.636;2023-04-09T12:10:35;96338.63;;;9.47;43.91
79285;BME280;68734;50.452;11.636;2023-04-09T12:13:06;96335.22;;;9.63;44.75
79285;BME280;68734;50.452;11.636;2023-04-09T12:15:34;96336.94;;;9.93;46.01
79285;BME280;68734;50.452;11.636;2023-04-09T12:18:00;96330.22;;;10.07;44.23
79285;BME280;68734;50.452;11.636;2023-04-09T12:20:32;96336.19;;;10.33;45.44
79285;BME280;68734;50.452;11.636;2023-04-09T12:22:59;96339.63;;;10.57;43.79
79285;BME280;68734;50.452;11.636;2023-04-09T12:25:26;96326.19;;;10.62;42.35
79285;BME280;68734;50.452;11.636;2023-04-09T12:27:52;96322.28;;;10.70;42.13
79285;BME280;68734;50.452;11.636;2023-04-09T12:30:18;96335.53;;;10.54;43.36
79285;BME280;68734;50.452;11.636;2023-04-09T12:32:46;96325.19;;;10.51;41.92
79285;BME280;68734;50.452;11.636;2023-04-09T12:35:12;96319.75;;;10.23;41.65
79285;BME280;68734;50.452;11.636;2023-04-09T12:37:38;96329.91;;;9.92;41.59
79285;BME280;68734;50.452;11.636;2023-04-09T12:40:04;96316.31;;;9.87;41.91
79285;BME280;68734;50.452;11.636;2023-04-09T12:42:30;96329.31;;;9.90;42.04
79285;BME280;68734;50.452;11.636;2023-04-09T12:44:55;96325.41;;;10.09;45.08
79285;BME280;68734;50.452;11.636;2023-04-09T12:47:21;96317.38;;;10.26;43.03
79285;BME280;68734;50.452;11.636;2023-04-09T12:49:47;96307.81;;;10.07;42.83
79285;BME280;68734;50.452;11.636;2023-04-09T12:52:14;96308.59;;;9.55;43.53
79285;BME280;68734;50.452;11.636;2023-04-09T12:54:40;96299.78;;;9.71;43.02
79285;BME280;68734;50.452;11.636;2023-04-09T12:57:06;96297.97;;;10.12;43.28
79285;BME280;68734;50.452;11.636;2023-04-09T12:59:32;96295.88;;;10.43;43.49
79285;BME280;68734;50.452;11.636;2023-04-09T13:01:57;96289.13;;;10.57;41.31
79285;BME280;68734;50.452;11.636;2023-04-09T13:04:22;96293.34;;;10.25;42.33
79285;BME280;68734;50.452;11.636;2023-04-09T13:06:48;96296.22;;;10.47;42.42
79285;BME280;68734;50.452;11.636;2023-04-09T13:09:14;96285.53;;;10.69;41.59
79285;BME280;68734;50.452;11.636;2023-04-09T13:11:40;96297.41;;;10.68;42.90
79285;BME280;68734;50.452;11.636;2023-04-09T13:14:05;96286.41;;;10.57;40.81
79285;BME280;68734;50.452;11.636;2023-04-09T13:16:31;96290.31;;;10.09;42.35
79285;BME280;68734;50.452;11.636;2023-04-09T13:18:57;96288.81;;;10.02;42.07
79285;BME280;68734;50.452;11.636;2023-04-09T13:21:23;96291.91;;;10.34;42.00